Wildcat, West Virginia
Current Conditions -  °F | °C
As of 4:15 AM on Wednesday 22 Oct 2014 (Local Time) from KW22 Reporting Station
Drizzle Drizzle  
Wind Chill:   Ceiling: 300
Heat Index:   Visibility: 3mi
Dew Point:   Wind: 5mph
Humidity: 100%   Direction: 310°NW
Pressure: 30.04"   Gusts: NA
Location:  38.7502°N, 80.4805°W
Report Text: KW22 220815Z AUTO 31004KT 3SM -DZ OVC003 06/06 A3004 RMK AO2
Loading
Personal Weather Stations






























Interactive Weather Map
Tropical Storm Tracking
New forecast layout! Learn more

10-Day Weather Forecast

Advertisements
Track Severe Weather on mobile